sensor_id;sensor_type;location;lat;lon;timestamp;pressure;altitude;pressure_sealevel;temperature;humidity
68580;BME280;55555;52.136;5.424;2022-07-04T00:00:52;102100.44;;;13.62;75.59
68580;BME280;55555;52.136;5.424;2022-07-04T00:03:20;102098.16;;;13.58;75.80
68580;BME280;55555;52.136;5.424;2022-07-04T00:05:47;102109.19;;;13.57;75.18
68580;BME280;55555;52.136;5.424;2022-07-04T00:08:14;102097.72;;;13.48;76.24
68580;BME280;55555;52.136;5.424;2022-07-04T00:10:41;102095.03;;;13.48;76.14
68580;BME280;55555;52.136;5.424;2022-07-04T00:13:08;102098.34;;;13.44;76.28
68580;BME280;55555;52.136;5.424;2022-07-04T00:15:35;102094.97;;;13.35;76.68
68580;BME280;55555;52.136;5.424;2022-07-04T00:18:02;102085.19;;;13.34;76.85
68580;BME280;55555;52.136;5.424;2022-07-04T00:20:29;102088.94;;;13.33;76.35
68580;BME280;55555;52.136;5.424;2022-07-04T00:22:56;102081.00;;;13.32;76.81
68580;BME280;55555;52.136;5.424;2022-07-04T00:25:23;102080.56;;;13.28;76.44
68580;BME280;55555;52.136;5.424;2022-07-04T00:27:50;102086.00;;;13.28;76.69
68580;BME280;55555;52.136;5.424;2022-07-04T00:30:17;102076.41;;;13.25;76.28
68580;BME280;55555;52.136;5.424;2022-07-04T00:32:44;102086.56;;;13.17;76.59
68580;BME280;55555;52.136;5.424;2022-07-04T00:35:11;102081.31;;;13.15;76.45
68580;BME280;55555;52.136;5.424;2022-07-04T00:37:38;102081.31;;;13.15;77.00
68580;BME280;55555;52.136;5.424;2022-07-04T00:40:05;102077.78;;;13.15;76.46
68580;BME280;55555;52.136;5.424;2022-07-04T00:42:33;102074.44;;;13.13;76.46
68580;BME280;55555;52.136;5.424;2022-07-04T00:44:59;102080.63;;;13.00;78.07
68580;BME280;55555;52.136;5.424;2022-07-04T00:47:26;102073.34;;;13.01;77.27
68580;BME280;55555;52.136;5.424;2022-07-04T00:49:53;102072.31;;;13.02;76.80
68580;BME280;55555;52.136;5.424;2022-07-04T00:52:20;102069.59;;;12.95;77.02
68580;BME280;55555;52.136;5.424;2022-07-04T00:54:48;102069.59;;;12.95;77.04
68580;BME280;55555;52.136;5.424;2022-07-04T00:57:16;102068.53;;;12.89;77.14
68580;BME280;55555;52.136;5.424;2022-07-04T00:59:43;102064.59;;;12.92;76.83
68580;BME280;55555;52.136;5.424;2022-07-04T01:02:10;102065.81;;;12.89;76.81
68580;BME280;55555;52.136;5.424;2022-07-04T01:04:37;102066.84;;;12.88;76.92
68580;BME280;55555;52.136;5.424;2022-07-04T01:07:04;102059.75;;;12.81;77.32
68580;BME280;55555;52.136;5.424;2022-07-04T01:09:32;102073.25;;;12.81;77.99
68580;BME280;55555;52.136;5.424;2022-07-04T01:12:00;102067.41;;;12.77;77.44
68580;BME280;55555;52.136;5.424;2022-07-04T01:14:27;102052.84;;;12.78;77.40
68580;BME280;55555;52.136;5.424;2022-07-04T01:16:53;102065.09;;;12.74;77.72
68580;BME280;55555;52.136;5.424;2022-07-04T01:19:20;102067.19;;;12.72;78.03
68580;BME280;55555;52.136;5.424;2022-07-04T01:21:47;102066.94;;;12.67;78.39
68580;BME280;55555;52.136;5.424;2022-07-04T01:24:14;102056.31;;;12.66;78.29
68580;BME280;55555;52.136;5.424;2022-07-04T01:26:41;102054.44;;;12.66;78.57
68580;BME280;55555;52.136;5.424;2022-07-04T01:29:08;102057.56;;;12.63;78.70
68580;BME280;55555;52.136;5.424;2022-07-04T01:31:35;102049.84;;;12.60;78.39
68580;BME280;55555;52.136;5.424;2022-07-04T01:34:02;102056.91;;;12.61;78.46
68580;BME280;55555;52.136;5.424;2022-07-04T01:36:29;102054.22;;;12.61;79.00
68580;BME280;55555;52.136;5.424;2022-07-04T01:38:56;102058.59;;;12.62;78.19
68580;BME280;55555;52.136;5.424;2022-07-04T01:41:25;102049.84;;;12.60;78.87
68580;BME280;55555;52.136;5.424;2022-07-04T01:43:52;102051.50;;;12.61;78.24
68580;BME280;55555;52.136;5.424;2022-07-04T01:46:19;102046.50;;;12.58;78.38
68580;BME280;55555;52.136;5.424;2022-07-04T01:48:45;102056.22;;;12.52;78.45
68580;BME280;55555;52.136;5.424;2022-07-04T01:51:13;102056.44;;;12.51;78.55
68580;BME280;55555;52.136;5.424;2022-07-04T01:53:40;102048.56;;;12.56;77.93
68580;BME280;55555;52.136;5.424;2022-07-04T01:56:07;102046.84;;;12.48;78.11
68580;BME280;55555;52.136;5.424;2022-07-04T01:58:34;102046.44;;;12.45;78.04
68580;BME280;55555;52.136;5.424;2022-07-04T02:01:01;102043.94;;;12.43;78.36
68580;BME280;55555;52.136;5.424;2022-07-04T02:03:46;102039.75;;;12.41;78.18
68580;BME280;55555;52.136;5.424;2022-07-04T02:06:13;102045.56;;;12.38;78.15
68580;BME280;55555;52.136;5.424;2022-07-04T02:08:40;102042.41;;;12.34;78.31
68580;BME280;55555;52.136;5.424;2022-07-04T02:11:26;102044.81;;;12.22;78.83
68580;BME280;55555;52.136;5.424;2022-07-04T02:13:53;102042.31;;;12.21;79.18
68580;BME280;55555;52.136;5.424;2022-07-04T02:16:20;102051.50;;;12.26;79.07
68580;BME280;55555;52.136;5.424;2022-07-04T02:18:47;102052.53;;;12.25;79.00
68580;BME280;55555;52.136;5.424;2022-07-04T02:21:14;102052.91;;;12.22;78.73
68580;BME280;55555;52.136;5.424;2022-07-04T02:23:41;102049.56;;;12.20;78.72
68580;BME280;55555;52.136;5.424;2022-07-04T02:26:08;102053.31;;;12.19;78.53
68580;BME280;55555;52.136;5.424;2022-07-04T02:28:35;102052.66;;;12.17;78.80
68580;BME280;55555;52.136;5.424;2022-07-04T02:31:02;102048.69;;;12.13;78.71
68580;BME280;55555;52.136;5.424;2022-07-04T02:33:30;102044.31;;;12.12;78.92
68580;BME280;55555;52.136;5.424;2022-07-04T02:35:57;102045.53;;;12.10;78.64
68580;BME280;55555;52.136;5.424;2022-07-04T02:38:24;102045.34;;;12.11;78.47
68580;BME280;55555;52.136;5.424;2022-07-04T02:40:51;102039.50;;;12.08;78.16
68580;BME280;55555;52.136;5.424;2022-07-04T02:43:17;102043.22;;;12.07;78.52
68580;BME280;55555;52.136;5.424;2022-07-04T02:45:45;102041.13;;;12.02;78.46
68580;BME280;55555;52.136;5.424;2022-07-04T02:48:12;102039.84;;;11.98;78.34
68580;BME280;55555;52.136;5.424;2022-07-04T02:50:39;102040.63;;;11.92;78.53
68580;BME280;55555;52.136;5.424;2022-07-04T02:53:06;102043.53;;;11.90;78.62
68580;BME280;55555;52.136;5.424;2022-07-04T02:55:33;102045.41;;;11.90;78.87
68580;BME280;55555;52.136;5.424;2022-07-04T02:58:00;102043.09;;;11.87;78.64
68580;BME280;55555;52.136;5.424;2022-07-04T03:00:27;102038.72;;;11.86;78.81
68580;BME280;55555;52.136;5.424;2022-07-04T03:02:54;102036.00;;;11.86;78.72
68580;BME280;55555;52.136;5.424;2022-07-04T03:05:22;102040.97;;;11.82;78.93
68580;BME280;55555;52.136;5.424;2022-07-04T03:07:49;102046.56;;;11.81;78.79
68580;BME280;55555;52.136;5.424;2022-07-04T03:10:16;102044.06;;;11.79;79.00
68580;BME280;55555;52.136;5.424;2022-07-04T03:12:43;102049.34;;;11.73;79.04
68580;BME280;55555;52.136;5.424;2022-07-04T03:15:10;102049.34;;;11.73;79.49
68580;BME280;55555;52.136;5.424;2022-07-04T03:17:37;102052.06;;;11.73;79.91
68580;BME280;55555;52.136;5.424;2022-07-04T03:20:04;102050.00;;;11.75;79.58
68580;BME280;55555;52.136;5.424;2022-07-04T03:22:32;102047.88;;;11.70;81.13
68580;BME280;55555;52.136;5.424;2022-07-04T03:24:59;102062.00;;;11.72;80.61
68580;BME280;55555;52.136;5.424;2022-07-04T03:27:26;102050.84;;;11.75;80.11
68580;BME280;55555;52.136;5.424;2022-07-04T03:29:53;102059.97;;;11.74;80.20
68580;BME280;55555;52.136;5.424;2022-07-04T03:32:20;102056.44;;;11.74;80.49
68580;BME280;55555;52.136;5.424;2022-07-04T03:34:47;102067.03;;;11.75;80.42
68580;BME280;55555;52.136;5.424;2022-07-04T03:37:14;102062.66;;;11.74;80.47
68580;BME280;55555;52.136;5.424;2022-07-04T03:39:41;102054.56;;;11.74;80.44
68580;BME280;55555;52.136;5.424;2022-07-04T03:42:15;102061.47;;;11.77;80.58
68580;BME280;55555;52.136;5.424;2022-07-04T03:44:42;102059.59;;;11.77;79.74
68580;BME280;55555;52.136;5.424;2022-07-04T03:47:10;102052.06;;;11.73;80.76
68580;BME280;55555;52.136;5.424;2022-07-04T03:49:36;102059.97;;;11.74;80.68
68580;BME280;55555;52.136;5.424;2022-07-04T03:52:04;102062.47;;;11.76;80.91
68580;BME280;55555;52.136;5.424;2022-07-04T03:54:31;102056.72;;;11.79;81.13
68580;BME280;55555;52.136;5.424;2022-07-04T03:56:58;102071.88;;;11.80;82.05
68580;BME280;55555;52.136;5.424;2022-07-04T03:59:25;102064.06;;;11.85;81.25
68580;BME280;55555;52.136;5.424;2022-07-04T04:01:52;102063.84;;;11.86;81.60
68580;BME280;55555;52.136;5.424;2022-07-04T04:04:19;102065.97;;;11.91;82.01
68580;BME280;55555;52.136;5.424;2022-07-04T04:07:04;102062.25;;;11.92;81.64
68580;BME280;55555;52.136;5.424;2022-07-04T04:09:31;102056.84;;;11.92;81.50
68580;BME280;55555;52.136;5.424;2022-07-04T04:11:58;102065.63;;;12.01;81.74
68580;BME280;55555;52.136;5.424;2022-07-04T04:14:25;102076.88;;;12.04;81.92
68580;BME280;55555;52.136;5.424;2022-07-04T04:16:53;102084.19;;;12.10;82.30
68580;BME280;55555;52.136;5.424;2022-07-04T04:19:21;102083.44;;;12.16;81.91
68580;BME280;55555;52.136;5.424;2022-07-04T04:21:48;102078.84;;;12.17;82.63
68580;BME280;55555;52.136;5.424;2022-07-04T04:24:15;102080.97;;;12.21;81.93
68580;BME280;55555;52.136;5.424;2022-07-04T04:26:42;102079.31;;;12.20;78.76
68580;BME280;55555;52.136;5.424;2022-07-04T04:29:09;102079.16;;;12.29;80.28
68580;BME280;55555;52.136;5.424;2022-07-04T04:31:36;102086.25;;;12.30;79.97
68580;BME280;55555;52.136;5.424;2022-07-04T04:34:03;102083.34;;;12.31;81.42
68580;BME280;55555;52.136;5.424;2022-07-04T04:36:30;102081.34;;;12.40;78.99
68580;BME280;55555;52.136;5.424;2022-07-04T04:38:57;102071.75;;;12.37;78.08
68580;BME280;55555;52.136;5.424;2022-07-04T04:41:24;102089.03;;;12.43;79.91
68580;BME280;55555;52.136;5.424;2022-07-04T04:43:51;102082.59;;;12.44;81.17
68580;BME280;55555;52.136;5.424;2022-07-04T04:46:20;102078.06;;;12.51;81.01
68580;BME280;55555;52.136;5.424;2022-07-04T04:48:47;102085.56;;;12.55;81.92
68580;BME280;55555;52.136;5.424;2022-07-04T04:51:14;102090.59;;;12.58;80.30
68580;BME280;55555;52.136;5.424;2022-07-04T04:53:41;102085.63;;;12.62;81.92
68580;BME280;55555;52.136;5.424;2022-07-04T04:56:08;102091.72;;;12.71;79.12
68580;BME280;55555;52.136;5.424;2022-07-04T04:58:35;102093.63;;;12.77;82.19
68580;BME280;55555;52.136;5.424;2022-07-04T05:01:02;102094.66;;;12.76;76.48
68580;BME280;55555;52.136;5.424;2022-07-04T05:03:49;102103.06;;;12.87;81.45
68580;BME280;55555;52.136;5.424;2022-07-04T05:06:17;102096.44;;;12.97;80.69
68580;BME280;55555;52.136;5.424;2022-07-04T05:08:45;102096.69;;;13.08;79.99
68580;BME280;55555;52.136;5.424;2022-07-04T05:11:12;102094.69;;;13.17;79.99
68580;BME280;55555;52.136;5.424;2022-07-04T05:13:39;102092.25;;;13.29;80.29
68580;BME280;55555;52.136;5.424;2022-07-04T05:16:06;102098.94;;;13.39;80.00
68580;BME280;55555;52.136;5.424;2022-07-04T05:18:33;102094.38;;;13.46;79.07
68580;BME280;55555;52.136;5.424;2022-07-04T05:21:00;102090.63;;;13.54;79.79
68580;BME280;55555;52.136;5.424;2022-07-04T05:23:27;102098.16;;;13.58;78.30
68580;BME280;55555;52.136;5.424;2022-07-04T05:25:54;102101.09;;;13.64;79.87
68580;BME280;55555;52.136;5.424;2022-07-04T05:28:21;102100.69;;;13.73;80.39
68580;BME280;55555;52.136;5.424;2022-07-04T05:30:48;102105.72;;;13.83;78.86
68580;BME280;55555;52.136;5.424;2022-07-04T05:33:15;102099.25;;;13.84;81.67
68580;BME280;55555;52.136;5.424;2022-07-04T05:35:43;102088.44;;;13.97;80.35
68580;BME280;55555;52.136;5.424;2022-07-04T05:38:10;102101.56;;;14.07;82.53
68580;BME280;55555;52.136;5.424;2022-07-04T05:40:37;102099.91;;;14.19;82.37
68580;BME280;55555;52.136;5.424;2022-07-04T05:43:04;102096.56;;;14.37;81.53
68580;BME280;55555;52.136;5.424;2022-07-04T05:45:31;102104.47;;;14.58;82.92
68580;BME280;55555;52.136;5.424;2022-07-04T05:47:58;102102.78;;;14.83;81.96
68580;BME280;55555;52.136;5.424;2022-07-04T05:50:25;102105.59;;;15.08;82.38
68580;BME280;55555;52.136;5.424;2022-07-04T05:52:58;102112.16;;;15.45;81.51
68580;BME280;55555;52.136;5.424;2022-07-04T05:55:25;102105.31;;;15.74;81.69
68580;BME280;55555;52.136;5.424;2022-07-04T05:57:52;102103.41;;;15.81;80.74
68580;BME280;55555;52.136;5.424;2022-07-04T06:00:19;102109.09;;;16.05;80.03
68580;BME280;55555;52.136;5.424;2022-07-04T06:02:46;102109.38;;;16.21;79.76
68580;BME280;55555;52.136;5.424;2022-07-04T06:05:13;102111.97;;;16.35;79.82
68580;BME280;55555;52.136;5.424;2022-07-04T06:07:40;102103.88;;;16.53;79.08
68580;BME280;55555;52.136;5.424;2022-07-04T06:10:08;102102.28;;;16.64;77.18
68580;BME280;55555;52.136;5.424;2022-07-04T06:12:35;102102.78;;;16.79;77.40
68580;BME280;55555;52.136;5.424;2022-07-04T06:15:03;102110.28;;;17.02;77.54
68580;BME280;55555;52.136;5.424;2022-07-04T06:17:31;102104.16;;;17.06;77.33
68580;BME280;55555;52.136;5.424;2022-07-04T06:19:58;102123.41;;;17.41;77.06
68580;BME280;55555;52.136;5.424;2022-07-04T06:22:25;102122.34;;;17.42;75.64
68580;BME280;55555;52.136;5.424;2022-07-04T06:24:52;102113.50;;;17.65;75.51
68580;BME280;55555;52.136;5.424;2022-07-04T06:27:19;102103.81;;;17.81;74.66
68580;BME280;55555;52.136;5.424;2022-07-04T06:29:46;102099.59;;;17.97;73.87
68580;BME280;55555;52.136;5.424;2022-07-04T06:32:13;102098.19;;;18.06;73.82
68580;BME280;55555;52.136;5.424;2022-07-04T06:34:40;102096.28;;;18.06;73.13
68580;BME280;55555;52.136;5.424;2022-07-04T06:37:26;102092.38;;;18.02;74.05
68580;BME280;55555;52.136;5.424;2022-07-04T06:39:53;102088.72;;;18.43;73.45
68580;BME280;55555;52.136;5.424;2022-07-04T06:42:19;102092.63;;;18.24;72.57
68580;BME280;55555;52.136;5.424;2022-07-04T06:44:46;102100.72;;;18.77;72.25
68580;BME280;55555;52.136;5.424;2022-07-04T06:47:13;102098.41;;;19.21;70.92
68580;BME280;55555;52.136;5.424;2022-07-04T06:49:40;102098.00;;;19.29;70.11
68580;BME280;55555;52.136;5.424;2022-07-04T06:52:08;102093.34;;;19.70;70.05
68580;BME280;55555;52.136;5.424;2022-07-04T06:54:35;102103.94;;;20.11;69.14
68580;BME280;55555;52.136;5.424;2022-07-04T06:57:02;102097.69;;;20.33;68.39
68580;BME280;55555;52.136;5.424;2022-07-04T06:59:49;102092.41;;;20.09;68.25
68580;BME280;55555;52.136;5.424;2022-07-04T07:02:16;102089.72;;;20.31;68.60
68580;BME280;55555;52.136;5.424;2022-07-04T07:04:43;102085.84;;;20.61;67.19
68580;BME280;55555;52.136;5.424;2022-07-04T07:07:10;102083.66;;;20.79;67.51
68580;BME280;55555;52.136;5.424;2022-07-04T07:09:37;102078.66;;;20.76;66.40
68580;BME280;55555;52.136;5.424;2022-07-04T07:12:04;102080.81;;;21.40;66.44
68580;BME280;55555;52.136;5.424;2022-07-04T07:14:32;102082.75;;;21.39;65.82
68580;BME280;55555;52.136;5.424;2022-07-04T07:16:59;102081.88;;;21.61;64.85
68580;BME280;55555;52.136;5.424;2022-07-04T07:19:26;102084.03;;;21.86;65.33
68580;BME280;55555;52.136;5.424;2022-07-04T07:21:53;102086.81;;;21.91;63.73
68580;BME280;55555;52.136;5.424;2022-07-04T07:24:20;102075.31;;;22.21;63.28
68580;BME280;55555;52.136;5.424;2022-07-04T07:26:49;102074.16;;;22.54;62.77
68580;BME280;55555;52.136;5.424;2022-07-04T07:29:17;102072.72;;;22.83;61.03
68580;BME280;55555;52.136;5.424;2022-07-04T07:31:44;102078.22;;;22.83;60.74
68580;BME280;55555;52.136;5.424;2022-07-04T07:34:11;102085.94;;;22.86;60.99
68580;BME280;55555;52.136;5.424;2022-07-04T07:36:38;102097.19;;;22.90;59.91
68580;BME280;55555;52.136;5.424;2022-07-04T07:39:05;102105.09;;;23.38;61.38
68580;BME280;55555;52.136;5.424;2022-07-04T07:41:33;102103.69;;;22.73;60.31
68580;BME280;55555;52.136;5.424;2022-07-04T07:44:00;102099.84;;;22.32;59.45
68580;BME280;55555;52.136;5.424;2022-07-04T07:46:27;102092.22;;;22.82;56.60
68580;BME280;55555;52.136;5.424;2022-07-04T07:48:54;102088.03;;;22.32;57.54
68580;BME280;55555;52.136;5.424;2022-07-04T07:51:21;102098.00;;;22.48;59.12
68580;BME280;55555;52.136;5.424;2022-07-04T07:53:48;102091.78;;;22.63;60.06
68580;BME280;55555;52.136;5.424;2022-07-04T07:56:35;102085.28;;;22.74;59.77
68580;BME280;55555;52.136;5.424;2022-07-04T07:59:02;102090.63;;;22.54;58.58
68580;BME280;55555;52.136;5.424;2022-07-04T08:01:29;102098.38;;;23.09;57.28
68580;BME280;55555;52.136;5.424;2022-07-04T08:03:56;102089.34;;;23.14;58.29
68580;BME280;55555;52.136;5.424;2022-07-04T08:06:47;102103.41;;;23.27;59.75
68580;BME280;55555;52.136;5.424;2022-07-04T08:09:35;102099.44;;;24.01;59.39
68580;BME280;55555;52.136;5.424;2022-07-04T08:12:04;102101.06;;;23.71;56.33
68580;BME280;55555;52.136;5.424;2022-07-04T08:14:33;102097.25;;;24.18;55.74
68580;BME280;55555;52.136;5.424;2022-07-04T08:17:01;102092.00;;;24.12;52.86
68580;BME280;55555;52.136;5.424;2022-07-04T08:19:28;102101.13;;;24.32;55.60
68580;BME280;55555;52.136;5.424;2022-07-04T08:21:55;102102.16;;;23.65;55.94
68580;BME280;55555;52.136;5.424;2022-07-04T08:24:40;102102.44;;;23.69;56.20
68580;BME280;55555;52.136;5.424;2022-07-04T08:27:07;102111.78;;;22.95;56.33
68580;BME280;55555;52.136;5.424;2022-07-04T08:29:34;102104.13;;;23.85;52.92
68580;BME280;55555;52.136;5.424;2022-07-04T08:32:01;102111.72;;;23.48;57.20
68580;BME280;55555;52.136;5.424;2022-07-04T08:34:28;102112.91;;;23.67;55.14
68580;BME280;55555;52.136;5.424;2022-07-04T08:36:55;102115.63;;;23.57;55.17
68580;BME280;55555;52.136;5.424;2022-07-04T08:39:22;102106.19;;;23.37;52.99
68580;BME280;55555;52.136;5.424;2022-07-04T08:41:52;102113.16;;;22.98;54.16
68580;BME280;55555;52.136;5.424;2022-07-04T08:44:19;102113.19;;;23.03;56.57
68580;BME280;55555;52.136;5.424;2022-07-04T08:46:49;102115.97;;;23.08;56.09
68580;BME280;55555;52.136;5.424;2022-07-04T08:49:24;102120.97;;;23.21;54.51
68580;BME280;55555;52.136;5.424;2022-07-04T08:52:04;102119.56;;;22.66;56.67
68580;BME280;55555;52.136;5.424;2022-07-04T08:54:32;102130.25;;;22.63;57.54
68580;BME280;55555;52.136;5.424;2022-07-04T08:57:18;102136.53;;;21.94;58.79
68580;BME280;55555;52.136;5.424;2022-07-04T09:00:05;102128.56;;;21.93;58.61
68580;BME280;55555;52.136;5.424;2022-07-04T09:02:34;102130.28;;;21.23;58.74
68580;BME280;55555;52.136;5.424;2022-07-04T09:05:04;102134.75;;;21.12;59.82
68580;BME280;55555;52.136;5.424;2022-07-04T09:07:32;102132.31;;;20.94;58.79
68580;BME280;55555;52.136;5.424;2022-07-04T09:09:59;102133.56;;;20.48;61.50
68580;BME280;55555;52.136;5.424;2022-07-04T09:12:29;102135.69;;;20.79;60.62
68580;BME280;55555;52.136;5.424;2022-07-04T09:15:14;102139.97;;;20.92;59.26
68580;BME280;55555;52.136;5.424;2022-07-04T09:17:42;102135.69;;;20.79;59.42
68580;BME280;55555;52.136;5.424;2022-07-04T09:20:20;102130.34;;;21.28;61.45
68580;BME280;55555;52.136;5.424;2022-07-04T09:22:50;102117.78;;;21.86;60.08
68580;BME280;55555;52.136;5.424;2022-07-04T09:25:19;102124.38;;;22.49;55.79
68580;BME280;55555;52.136;5.424;2022-07-04T09:27:52;102127.88;;;22.34;57.83
68580;BME280;55555;52.136;5.424;2022-07-04T09:30:27;102121.50;;;23.13;51.08
68580;BME280;55555;52.136;5.424;2022-07-04T09:32:56;102119.38;;;23.40;54.20
68580;BME280;55555;52.136;5.424;2022-07-04T09:35:29;102120.53;;;23.50;53.17
68580;BME280;55555;52.136;5.424;2022-07-04T09:38:04;102119.13;;;22.80;51.68
68580;BME280;55555;52.136;5.424;2022-07-04T09:40:36;102126.56;;;22.79;51.24
68580;BME280;55555;52.136;5.424;2022-07-04T09:43:23;102130.16;;;22.85;51.29
68580;BME280;55555;52.136;5.424;2022-07-04T09:48:23;102133.06;;;22.36;51.35
68580;BME280;55555;52.136;5.424;2022-07-04T09:50:51;102132.06;;;21.88;53.84
68580;BME280;55555;52.136;5.424;2022-07-04T09:53:18;102131.75;;;21.85;52.81
68580;BME280;55555;52.136;5.424;2022-07-04T09:55:45;102130.53;;;21.70;53.80
68580;BME280;55555;52.136;5.424;2022-07-04T09:58:14;102125.63;;;21.24;53.71
68580;BME280;55555;52.136;5.424;2022-07-04T10:00:44;102130.25;;;21.99;56.87
68580;BME280;55555;52.136;5.424;2022-07-04T10:03:24;102129.00;;;22.06;57.25
68580;BME280;55555;52.136;5.424;2022-07-04T10:06:21;102125.13;;;22.76;54.63
68580;BME280;55555;52.136;5.424;2022-07-04T10:08:51;102123.31;;;22.50;52.40
68580;BME280;55555;52.136;5.424;2022-07-04T10:11:18;102122.81;;;22.58;52.22
68580;BME280;55555;52.136;5.424;2022-07-04T10:14:00;102117.16;;;22.38;52.07
68580;BME280;55555;52.136;5.424;2022-07-04T10:16:27;102114.50;;;22.11;51.53
68580;BME280;55555;52.136;5.424;2022-07-04T10:18:56;102117.91;;;21.69;52.81
68580;BME280;55555;52.136;5.424;2022-07-04T10:21:24;102113.66;;;21.57;53.89
68580;BME280;55555;52.136;5.424;2022-07-04T10:23:51;102123.19;;;21.76;53.42
68580;BME280;55555;52.136;5.424;2022-07-04T10:26:22;102123.81;;;21.56;53.79
68580;BME280;55555;52.136;5.424;2022-07-04T10:28:51;102119.03;;;21.46;52.52
68580;BME280;55555;52.136;5.424;2022-07-04T10:31:20;102120.78;;;20.92;55.85
68580;BME280;55555;52.136;5.424;2022-07-04T10:33:49;102115.03;;;20.94;54.63
68580;BME280;55555;52.136;5.424;2022-07-04T10:36:19;102116.66;;;21.11;55.56
68580;BME280;55555;52.136;5.424;2022-07-04T10:41:21;102122.69;;;20.92;54.62
68580;BME280;55555;52.136;5.424;2022-07-04T10:44:00;102117.72;;;21.27;55.86
68580;BME280;55555;52.136;5.424;2022-07-04T10:46:43;102122.97;;;21.56;55.25
68580;BME280;55555;52.136;5.424;2022-07-04T10:54:19;102113.25;;;21.70;55.04
68580;BME280;55555;52.136;5.424;2022-07-04T10:59:31;102106.53;;;22.89;56.05
68580;BME280;55555;52.136;5.424;2022-07-04T11:17:52;102099.00;;;23.26;49.79
68580;BME280;55555;52.136;5.424;2022-07-04T11:20:31;102107.03;;;23.38;51.12
68580;BME280;55555;52.136;5.424;2022-07-04T11:23:07;102106.38;;;23.16;47.34
68580;BME280;55555;52.136;5.424;2022-07-04T11:25:35;102097.66;;;22.34;50.47
68580;BME280;55555;52.136;5.424;2022-07-04T11:31:12;102099.38;;;22.83;47.03
68580;BME280;55555;52.136;5.424;2022-07-04T11:33:41;102101.13;;;22.62;47.67
68580;BME280;55555;52.136;5.424;2022-07-04T11:36:13;102108.47;;;22.51;49.70
68580;BME280;55555;52.136;5.424;2022-07-04T11:38:50;102107.09;;;22.96;52.17
68580;BME280;55555;52.136;5.424;2022-07-04T11:41:31;102102.34;;;23.49;51.67
68580;BME280;55555;52.136;5.424;2022-07-04T11:44:19;102094.59;;;23.20;50.69
68580;BME280;55555;52.136;5.424;2022-07-04T11:47:10;102084.28;;;23.68;50.14
68580;BME280;55555;52.136;5.424;2022-07-04T11:49:55;102094.19;;;23.64;48.80
68580;BME280;55555;52.136;5.424;2022-07-04T11:52:26;102094.22;;;23.79;47.91
68580;BME280;55555;52.136;5.424;2022-07-04T11:55:21;102082.38;;;24.04;48.95
68580;BME280;55555;52.136;5.424;2022-07-04T11:57:50;102083.75;;;24.12;48.51
68580;BME280;55555;52.136;5.424;2022-07-04T12:00:26;102085.38;;;23.97;47.53
68580;BME280;55555;52.136;5.424;2022-07-04T12:02:58;102082.81;;;23.50;46.44
68580;BME280;55555;52.136;5.424;2022-07-04T12:05:27;102091.34;;;23.33;45.35
68580;BME280;55555;52.136;5.424;2022-07-04T12:07:54;102081.38;;;23.17;50.96
68580;BME280;55555;52.136;5.424;2022-07-04T12:10:41;102078.09;;;23.20;47.83
68580;BME280;55555;52.136;5.424;2022-07-04T12:13:14;102075.69;;;23.39;45.42
68580;BME280;55555;52.136;5.424;2022-07-04T12:15:48;102073.72;;;23.29;46.87
68580;BME280;55555;52.136;5.424;2022-07-04T12:18:26;102065.56;;;23.60;46.90
68580;BME280;55555;52.136;5.424;2022-07-04T12:21:11;102066.69;;;23.84;45.98
68580;BME280;55555;52.136;5.424;2022-07-04T12:23:41;102061.19;;;23.89;47.07
68580;BME280;55555;52.136;5.424;2022-07-04T12:26:32;102063.28;;;23.31;48.58
68580;BME280;55555;52.136;5.424;2022-07-04T12:29:01;102046.31;;;23.70;47.63
68580;BME280;55555;52.136;5.424;2022-07-04T12:31:42;102053.47;;;23.86;48.50
68580;BME280;55555;52.136;5.424;2022-07-04T12:34:17;102058.34;;;23.38;47.22
68580;BME280;55555;52.136;5.424;2022-07-04T12:36:54;102069.97;;;23.71;47.34
68580;BME280;55555;52.136;5.424;2022-07-04T12:39:36;102060.31;;;23.58;46.48
68580;BME280;55555;52.136;5.424;2022-07-04T12:42:11;102053.38;;;23.40;48.81
68580;BME280;55555;52.136;5.424;2022-07-04T12:44:41;102054.25;;;23.56;49.94
68580;BME280;55555;52.136;5.424;2022-07-04T12:47:11;102059.53;;;23.73;48.17
68580;BME280;55555;52.136;5.424;2022-07-04T12:49:45;102063.28;;;23.47;48.96
68580;BME280;55555;52.136;5.424;2022-07-04T12:52:15;102055.97;;;23.88;49.20
68580;BME280;55555;52.136;5.424;2022-07-04T12:54:43;102057.28;;;23.55;47.28
68580;BME280;55555;52.136;5.424;2022-07-04T12:57:13;102064.09;;;23.27;49.15
68580;BME280;55555;52.136;5.424;2022-07-04T12:59:42;102065.19;;;23.26;48.67
68580;BME280;55555;52.136;5.424;2022-07-04T13:02:10;102061.13;;;23.54;48.54
68580;BME280;55555;52.136;5.424;2022-07-04T13:04:38;102049.06;;;23.90;48.69
68580;BME280;55555;52.136;5.424;2022-07-04T13:07:13;102048.50;;;23.73;47.34
68580;BME280;55555;52.136;5.424;2022-07-04T13:09:42;102047.13;;;23.70;49.21
68580;BME280;55555;52.136;5.424;2022-07-04T13:12:11;102052.66;;;23.75;46.62
68580;BME280;55555;52.136;5.424;2022-07-04T13:14:51;102050.97;;;23.64;47.20
68580;BME280;55555;52.136;5.424;2022-07-04T13:17:20;102050.69;;;23.66;49.52
68580;BME280;55555;52.136;5.424;2022-07-04T13:19:47;102046.88;;;23.82;49.34
68580;BME280;55555;52.136;5.424;2022-07-04T13:22:14;102044.94;;;23.83;45.21
68580;BME280;55555;52.136;5.424;2022-07-04T13:24:41;102045.22;;;23.76;47.57
68580;BME280;55555;52.136;5.424;2022-07-04T13:27:08;102044.03;;;23.52;44.56
68580;BME280;55555;52.136;5.424;2022-07-04T13:29:35;102045.19;;;23.66;46.99
68580;BME280;55555;52.136;5.424;2022-07-04T13:32:03;102044.38;;;23.75;47.24
68580;BME280;55555;52.136;5.424;2022-07-04T13:34:37;102056.75;;;23.58;44.23